createdAt,value
2018-12-01T00:00:36.089Z,12.43
2018-12-01T00:03:04.705Z,12.07
2018-12-01T00:05:33.206Z,16.17
2018-12-01T00:08:01.707Z,10.10
2018-12-01T00:10:30.210Z,15.13
2018-12-01T00:12:59.076Z,15.73
2018-12-01T00:15:28.772Z,19.83
2018-12-01T00:17:57.396Z,12.97
2018-12-01T00:20:28.464Z,18.30
2018-12-01T00:22:56.995Z,13.37
2018-12-01T00:25:25.499Z,17.10
2018-12-01T00:27:54.008Z,18.53
2018-12-01T00:30:24.072Z,22.90
2018-12-01T00:32:53.254Z,13.80
2018-12-01T00:35:21.754Z,19.90
2018-12-01T00:37:50.235Z,19.20
2018-12-01T00:40:19.698Z,13.03
2018-12-01T00:42:48.261Z,20.23
2018-12-01T00:45:17.800Z,14.30
2018-12-01T00:47:48.150Z,16.50
2018-12-01T00:50:18.682Z,17.53
2018-12-01T00:52:48.151Z,13.83
2018-12-01T00:55:17.566Z,15.03
2018-12-01T00:57:46.320Z,16.37
2018-12-01T01:00:19.105Z,20.37
2018-12-01T01:02:50.856Z,17.63
2018-12-01T01:05:19.878Z,17.30
2018-12-01T01:07:48.374Z,15.93
2018-12-01T01:10:16.939Z,12.10
2018-12-01T01:12:45.455Z,14.70
2018-12-01T01:15:14.007Z,12.70
2018-12-01T01:17:42.581Z,16.00
2018-12-01T01:20:14.257Z,14.57
2018-12-01T01:22:42.803Z,15.70
2018-12-01T01:25:12.054Z,19.20
2018-12-01T01:27:40.643Z,16.00
2018-12-01T01:30:13.509Z,14.97
2018-12-01T01:32:42.015Z,13.60
2018-12-01T01:35:10.520Z,14.10
2018-12-01T01:37:39.017Z,19.40
2018-12-01T01:40:12.587Z,15.93
2018-12-01T01:42:41.139Z,19.43
2018-12-01T01:45:17.412Z,15.60
2018-12-01T01:47:45.989Z,13.27
2018-12-01T01:50:17.582Z,19.77
2018-12-01T01:52:46.083Z,15.57
2018-12-01T01:55:14.576Z,15.80
2018-12-01T01:57:43.091Z,17.57
2018-12-01T02:00:16.591Z,20.93
2018-12-01T02:02:48.051Z,15.27
2018-12-01T02:05:17.381Z,21.17
2018-12-01T02:07:45.865Z,15.07
2018-12-01T02:10:15.341Z,19.23
2018-12-01T02:12:43.835Z,18.23
2018-12-01T02:15:12.960Z,23.03
2018-12-01T02:17:41.419Z,12.57
2018-12-01T02:20:13.814Z,18.57
2018-12-01T02:22:42.318Z,21.13
2018-12-01T02:25:14.760Z,16.17
2018-12-01T02:27:43.287Z,13.10
2018-12-01T02:30:16.969Z,15.20
2018-12-01T02:32:45.612Z,21.30
2018-12-01T02:35:16.143Z,23.00
2018-12-01T02:37:44.606Z,21.53
2018-12-01T02:40:13.678Z,14.40
2018-12-01T02:42:42.984Z,18.93
2018-12-01T02:45:22.852Z,18.97
2018-12-01T02:47:51.348Z,18.13
2018-12-01T02:50:29.642Z,16.73
2018-12-01T02:53:00.141Z,16.93
2018-12-01T02:55:28.811Z,14.27
2018-12-01T02:57:57.277Z,15.40
2018-12-01T03:00:25.784Z,16.50
2018-12-01T03:02:54.310Z,16.53
2018-12-01T03:05:23.448Z,20.00
2018-12-01T03:07:52.712Z,14.47
2018-12-01T03:10:21.662Z,14.23
2018-12-01T03:12:51.111Z,16.10
2018-12-01T03:15:20.200Z,15.83
2018-12-01T03:17:50.576Z,16.80
2018-12-01T03:20:19.177Z,17.70
2018-12-01T03:22:47.685Z,14.40
2018-12-01T03:25:18.496Z,20.23
2018-12-01T03:27:47.460Z,10.87
2018-12-01T03:30:20.663Z,16.00
2018-12-01T03:32:50.084Z,15.80
2018-12-01T03:35:19.034Z,16.20
2018-12-01T03:37:48.475Z,15.87
2018-12-01T03:40:17.749Z,17.57
2018-12-01T03:42:46.288Z,22.90
2018-12-01T03:45:15.853Z,14.00
2018-12-01T03:47:44.401Z,12.13
2018-12-01T03:50:13.957Z,18.03
2018-12-01T03:52:42.419Z,18.60
2018-12-01T03:55:32.244Z,13.30
2018-12-01T03:58:00.943Z,14.23
2018-12-01T04:00:31.158Z,18.97
2018-12-01T04:03:00.714Z,10.77
2018-12-01T04:05:29.328Z,19.57
2018-12-01T04:07:58.304Z,14.07
2018-12-01T04:10:26.850Z,19.53
2018-12-01T04:12:55.704Z,13.63
2018-12-01T04:15:24.370Z,12.60
2018-12-01T04:17:52.872Z,10.07
2018-12-01T04:20:21.462Z,11.17
2018-12-01T04:22:49.934Z,9.30
2018-12-01T04:25:18.496Z,13.90
2018-12-01T04:27:46.966Z,10.73
2018-12-01T04:30:20.662Z,13.00
2018-12-01T04:32:49.353Z,11.37
2018-12-01T04:35:18.751Z,13.87
2018-12-01T04:37:48.272Z,13.03
2018-12-01T04:40:16.798Z,11.70
2018-12-01T04:42:46.171Z,10.57
2018-12-01T04:45:14.705Z,14.40
2018-12-01T04:47:43.252Z,10.23
2018-12-01T04:50:14.045Z,10.90
2018-12-01T04:52:42.654Z,11.83
2018-12-01T04:55:13.086Z,14.77
2018-12-01T04:57:41.583Z,18.70
2018-12-01T05:00:13.321Z,15.27
2018-12-01T05:02:41.806Z,17.37
2018-12-01T05:05:12.459Z,16.23
2018-12-01T05:07:40.922Z,18.03
2018-12-01T05:10:10.739Z,20.17
2018-12-01T05:12:39.241Z,14.47
2018-12-01T05:15:13.767Z,15.70
2018-12-01T05:17:42.291Z,17.97
2018-12-01T05:20:13.809Z,15.13
2018-12-01T05:22:42.328Z,16.27
2018-12-01T05:25:11.191Z,19.20
2018-12-01T05:27:39.660Z,16.73
2018-12-01T05:30:10.453Z,12.97
2018-12-01T05:32:39.858Z,15.60
2018-12-01T05:35:19.552Z,20.83
2018-12-01T05:37:48.980Z,21.70
2018-12-01T05:40:17.492Z,23.17
2018-12-01T05:42:46.004Z,17.13
2018-12-01T05:45:23.062Z,19.13
2018-12-01T05:47:52.269Z,16.00
2018-12-01T05:50:26.731Z,17.27
2018-12-01T05:52:57.243Z,14.27
2018-12-01T05:55:25.815Z,15.70
2018-12-01T05:57:54.855Z,24.50
2018-12-01T06:00:26.576Z,17.03
2018-12-01T06:02:55.066Z,18.73
2018-12-01T06:05:23.671Z,12.10
2018-12-01T06:07:52.167Z,15.33
2018-12-01T06:10:22.440Z,15.77
2018-12-01T06:12:52.310Z,15.40
2018-12-01T06:15:21.825Z,14.10
2018-12-01T06:17:50.318Z,14.60
2018-12-01T06:20:21.983Z,14.40
2018-12-01T06:22:50.487Z,17.67
2018-12-01T06:25:20.051Z,14.47
2018-12-01T06:27:48.537Z,16.10
2018-12-01T06:30:18.800Z,17.70
2018-12-01T06:32:48.235Z,15.23
2018-12-01T06:35:16.734Z,20.20
2018-12-01T06:37:45.301Z,15.80
2018-12-01T06:40:16.622Z,19.73
2018-12-01T06:42:45.139Z,13.67
2018-12-01T06:45:14.627Z,16.90
2018-12-01T06:47:43.152Z,22.03
2018-12-01T06:50:17.488Z,19.50
2018-12-01T06:52:45.938Z,15.97
2018-12-01T06:55:14.797Z,19.33
2018-12-01T06:57:44.381Z,19.13
2018-12-01T07:00:19.014Z,15.57
2018-12-01T07:02:48.019Z,17.33
2018-12-01T07:05:17.119Z,13.97
2018-12-01T07:07:45.624Z,16.57
2018-12-01T07:10:15.093Z,15.13
2018-12-01T07:12:45.237Z,17.13
2018-12-01T07:15:15.733Z,15.70
2018-12-01T07:17:44.182Z,17.20
2018-12-01T07:20:12.671Z,17.63
2018-12-01T07:22:41.142Z,15.13
2018-12-01T07:25:09.702Z,18.90
2018-12-01T07:27:38.166Z,16.90
2018-12-01T07:30:10.077Z,20.10
2018-12-01T07:32:39.669Z,16.83
2018-12-01T07:35:08.749Z,19.70
2018-12-01T07:37:37.492Z,17.37
2018-12-01T07:40:10.694Z,19.80
2018-12-01T07:42:42.076Z,15.20
2018-12-01T07:45:12.727Z,17.10
2018-12-01T07:47:41.209Z,16.07
2018-12-01T07:50:12.980Z,19.23
2018-12-01T07:52:42.219Z,21.60
2018-12-01T07:55:10.695Z,16.07
2018-12-01T07:57:39.175Z,15.00
2018-12-01T08:00:10.365Z,16.20
2018-12-01T08:02:39.035Z,20.37
2018-12-01T08:05:08.853Z,16.17
2018-12-01T08:07:37.390Z,14.87
2018-12-01T08:10:11.344Z,16.97
2018-12-01T08:12:39.830Z,18.60
2018-12-01T08:15:12.618Z,20.27
2018-12-01T08:17:41.950Z,15.83
2018-12-01T08:20:11.558Z,16.03
2018-12-01T08:22:40.045Z,20.50
2018-12-01T08:25:10.306Z,18.37
2018-12-01T08:27:39.413Z,19.20
2018-12-01T08:30:21.057Z,17.67
2018-12-01T08:32:50.050Z,18.10
2018-12-01T08:35:18.680Z,18.67
2018-12-01T08:37:51.116Z,22.77
2018-12-01T08:40:21.107Z,24.30
2018-12-01T08:42:50.275Z,17.30
2018-12-01T08:45:18.897Z,15.93
2018-12-01T08:47:47.489Z,17.30
2018-12-01T08:50:19.870Z,19.60
2018-12-01T08:52:48.469Z,22.10
2018-12-01T08:55:21.141Z,17.10
2018-12-01T08:57:50.163Z,19.57
2018-12-01T09:00:22.008Z,18.17
2018-12-01T09:02:53.125Z,21.40
2018-12-01T09:05:21.656Z,17.00
2018-12-01T09:07:50.165Z,27.80
2018-12-01T09:10:18.677Z,24.97
2018-12-01T09:12:47.168Z,19.00
2018-12-01T09:15:16.033Z,21.10
2018-12-01T09:17:44.527Z,22.50
2018-12-01T09:20:13.834Z,23.97
2018-12-01T09:22:45.441Z,18.03
2018-12-01T09:25:15.019Z,19.47
2018-12-01T09:27:43.535Z,18.53
2018-12-01T09:30:20.123Z,24.03
2018-12-01T09:32:48.800Z,18.90
2018-12-01T09:35:17.337Z,14.33
2018-12-01T09:37:45.850Z,18.77
2018-12-01T09:40:15.788Z,19.40
2018-12-01T09:42:44.507Z,18.83
2018-12-01T09:45:14.143Z,13.63
2018-12-01T09:47:43.495Z,18.17
2018-12-01T09:50:14.054Z,12.90
2018-12-01T09:52:43.349Z,18.93
2018-12-01T09:55:23.011Z,23.80
2018-12-01T09:57:52.443Z,20.67
2018-12-01T10:00:31.661Z,14.73
2018-12-01T10:03:02.261Z,18.37
2018-12-01T10:05:31.119Z,16.87
2018-12-01T10:07:59.724Z,20.50
2018-12-01T10:10:28.404Z,23.03
2018-12-01T10:12:57.629Z,16.37
2018-12-01T10:15:28.220Z,20.33
2018-12-01T10:17:56.763Z,11.53
2018-12-01T10:20:34.021Z,20.73
2018-12-01T10:23:05.883Z,16.83
2018-12-01T10:25:34.408Z,12.47
2018-12-01T10:28:02.983Z,15.00
2018-12-01T10:30:31.491Z,25.60
2018-12-01T10:33:00.028Z,20.43
2018-12-01T10:35:28.589Z,15.20
2018-12-01T10:38:13.489Z,12.47
2018-12-01T10:40:41.969Z,15.17
2018-12-01T10:43:10.460Z,18.10
2018-12-01T10:45:39.344Z,13.80
2018-12-01T10:48:09.015Z,16.90
2018-12-01T10:50:37.808Z,13.83
2018-12-01T10:53:06.712Z,21.17
2018-12-01T10:55:35.697Z,18.70
2018-12-01T10:58:17.489Z,19.37
2018-12-01T11:00:52.237Z,14.47
2018-12-01T11:03:26.258Z,15.10
2018-12-01T11:05:56.025Z,18.83
2018-12-01T11:08:24.695Z,19.63
2018-12-01T11:10:55.358Z,17.00
2018-12-01T11:13:21.728Z,11.93
2018-12-01T11:15:50.826Z,13.03
2018-12-01T11:18:19.312Z,12.63
2018-12-01T11:20:47.843Z,11.30
2018-12-01T11:23:16.344Z,18.77
2018-12-01T11:25:44.846Z,15.67
2018-12-01T11:28:13.371Z,10.47
2018-12-01T11:30:42.932Z,15.23
2018-12-01T11:33:11.443Z,11.90
2018-12-01T11:35:40.333Z,13.67
2018-12-01T11:38:09.479Z,18.67
2018-12-01T11:40:38.040Z,16.67
2018-12-01T11:43:08.118Z,12.70
2018-12-01T11:45:36.624Z,10.70
2018-12-01T11:48:05.475Z,13.43
2018-12-01T11:50:33.970Z,12.67
2018-12-01T11:53:02.501Z,20.17
2018-12-01T11:55:31.002Z,17.27
2018-12-01T11:57:59.506Z,10.13
2018-12-01T12:00:28.115Z,13.30
2018-12-01T12:02:56.755Z,11.70
2018-12-01T12:05:25.278Z,14.20
2018-12-01T12:08:05.031Z,14.93
2018-12-01T12:10:34.319Z,12.17
2018-12-01T12:13:02.829Z,13.47
2018-12-01T12:15:31.317Z,7.53
2018-12-01T12:18:01.197Z,7.57
2018-12-01T12:20:30.512Z,9.63
2018-12-01T12:22:59.451Z,11.23
2018-12-01T12:25:27.965Z,12.20
2018-12-01T12:27:56.512Z,15.67
2018-12-01T12:30:25.913Z,13.30
2018-12-01T12:32:53.688Z,11.33
2018-12-01T12:35:22.242Z,9.47
2018-12-01T12:37:50.747Z,9.30
2018-12-01T12:40:24.052Z,15.20
2018-12-01T12:42:55.431Z,13.77
2018-12-01T12:45:23.940Z,10.57
2018-12-01T12:47:52.476Z,13.97
2018-12-01T12:50:21.012Z,14.27
2018-12-01T12:52:50.543Z,16.80
2018-12-01T12:55:22.842Z,11.80
2018-12-01T12:57:51.344Z,11.63
2018-12-01T13:00:21.027Z,10.30
2018-12-01T13:02:57.918Z,7.50
2018-12-01T13:05:27.749Z,8.87
2018-12-01T13:07:56.279Z,13.17
2018-12-01T13:10:25.642Z,10.07
2018-12-01T13:12:54.167Z,11.37
2018-12-01T13:15:22.679Z,12.03
2018-12-01T13:17:51.137Z,9.73
2018-12-01T13:20:21.399Z,6.70
2018-12-01T13:22:52.946Z,11.10
2018-12-01T13:25:21.464Z,8.77
2018-12-01T13:27:53.030Z,10.77
2018-12-01T13:30:23.734Z,8.70
2018-12-01T13:32:52.266Z,13.07
2018-12-01T13:35:20.867Z,7.10
2018-12-01T13:37:49.373Z,10.43
2018-12-01T13:40:17.951Z,8.20
2018-12-01T13:42:47.162Z,7.93
2018-12-01T13:45:17.813Z,12.23
2018-12-01T13:47:48.068Z,7.97
2018-12-01T13:50:18.468Z,10.37
2018-12-01T13:52:50.971Z,7.10
2018-12-01T13:55:19.507Z,9.33
2018-12-01T13:57:48.295Z,10.47
2018-12-01T14:00:20.312Z,7.43
2018-12-01T14:02:48.793Z,6.80
2018-12-01T14:05:17.289Z,11.57
2018-12-01T14:07:45.919Z,9.47
2018-12-01T14:10:15.995Z,8.27
2018-12-01T14:12:45.774Z,7.73
2018-12-01T14:15:16.411Z,8.67
2018-12-01T14:17:44.944Z,7.80
2018-12-01T14:20:14.709Z,7.83
2018-12-01T14:22:43.930Z,7.63
2018-12-01T14:25:13.161Z,7.97
2018-12-01T14:27:43.198Z,8.27
2018-12-01T14:30:14.440Z,9.17
2018-12-01T14:32:43.427Z,10.10
2018-12-01T14:35:21.310Z,12.77
2018-12-01T14:37:54.371Z,10.30
2018-12-01T14:40:23.267Z,28.03
2018-12-01T14:42:53.505Z,8.40
2018-12-01T14:45:22.097Z,5.77
2018-12-01T14:47:50.811Z,7.83
2018-12-01T14:50:19.327Z,6.30
2018-12-01T14:52:48.305Z,5.60
2018-12-01T14:55:17.520Z,7.33
2018-12-01T14:57:46.834Z,6.17
2018-12-01T15:00:23.446Z,7.00
2018-12-01T15:02:52.895Z,6.80
2018-12-01T15:05:21.499Z,10.10
2018-12-01T15:07:50.402Z,11.63
2018-12-01T15:10:20.905Z,10.67
2018-12-01T15:12:49.447Z,9.73
2018-12-01T15:15:21.317Z,5.97
2018-12-01T15:17:49.820Z,10.30
2018-12-01T15:20:20.065Z,7.27
2018-12-01T15:22:50.045Z,7.83
2018-12-01T15:25:21.397Z,10.53
2018-12-01T15:27:49.916Z,6.23
2018-12-01T15:30:20.493Z,6.90
2018-12-01T15:33:01.074Z,7.87
2018-12-01T15:35:29.602Z,10.80
2018-12-01T15:37:58.231Z,7.07
2018-12-01T15:40:26.808Z,5.77
2018-12-01T15:42:55.395Z,5.20
2018-12-01T15:45:24.237Z,5.13
2018-12-01T15:47:54.120Z,4.23
2018-12-01T15:50:22.129Z,6.87
2018-12-01T15:52:53.852Z,8.63
2018-12-01T15:55:23.360Z,7.10
2018-12-01T15:57:52.027Z,5.87
2018-12-01T16:00:23.441Z,9.13
2018-12-01T16:02:52.003Z,7.20
2018-12-01T16:05:21.320Z,4.83
2018-12-01T16:07:53.044Z,22.97
2018-12-01T16:10:23.713Z,8.20
2018-12-01T16:13:02.741Z,7.13
2018-12-01T16:15:36.520Z,6.63
2018-12-01T16:18:08.734Z,6.10
2018-12-01T16:20:38.425Z,7.17
2018-12-01T16:23:09.102Z,6.30
2018-12-01T16:25:56.738Z,7.43
2018-12-01T16:28:27.546Z,6.40
2018-12-01T16:30:58.183Z,7.53
2018-12-01T16:33:28.373Z,6.87
2018-12-01T16:35:57.009Z,9.63
2018-12-01T16:38:30.336Z,8.53
2018-12-01T16:41:01.515Z,5.53
2018-12-01T16:43:32.785Z,5.27
2018-12-01T16:46:01.306Z,8.93
2018-12-01T16:48:29.938Z,4.63
2018-12-01T16:50:58.460Z,6.33
2018-12-01T16:53:27.016Z,5.97
2018-12-01T16:55:55.539Z,6.53
2018-12-01T16:58:24.153Z,5.67
2018-12-01T17:00:53.106Z,5.63
2018-12-01T17:03:21.719Z,5.37
2018-12-01T17:05:53.853Z,4.63
2018-12-01T17:08:22.380Z,6.60
2018-12-01T17:10:52.395Z,7.60
2018-12-01T17:13:20.961Z,4.73
2018-12-01T17:15:49.549Z,4.20
2018-12-01T17:18:18.213Z,5.97
2018-12-01T17:20:47.748Z,6.10
2018-12-01T17:23:17.071Z,4.90
2018-12-01T17:25:45.612Z,8.83
2018-12-01T17:28:16.804Z,9.27
2018-12-01T17:30:45.409Z,7.17
2018-12-01T17:33:13.929Z,6.53
2018-12-01T17:35:42.440Z,5.73
2018-12-01T17:38:17.176Z,7.93
2018-12-01T17:41:27.091Z,5.73
2018-12-01T17:44:01.663Z,8.37
2018-12-01T17:46:30.194Z,10.33
2018-12-01T17:48:58.738Z,5.07
2018-12-01T17:51:27.281Z,4.60
2018-12-01T17:53:57.336Z,5.33
2018-12-01T17:56:26.271Z,6.17
2018-12-01T17:58:54.769Z,5.90
2018-12-01T18:01:23.471Z,6.60
2018-12-01T18:03:51.957Z,2.70
2018-12-01T18:06:20.443Z,2.97
2018-12-01T18:08:48.973Z,6.50
2018-12-01T18:11:18.345Z,7.10
2018-12-01T18:13:47.653Z,4.40
2018-12-01T18:16:16.148Z,3.57
2018-12-01T18:18:45.183Z,4.03
2018-12-01T18:21:13.750Z,4.13
2018-12-01T18:23:42.421Z,3.37
2018-12-01T18:26:10.999Z,5.10
2018-12-01T18:28:45.562Z,2.83
2018-12-01T18:31:18.783Z,10.47
2018-12-01T18:33:49.834Z,4.93
2018-12-01T18:36:18.667Z,6.17
2018-12-01T18:38:50.354Z,3.40
2018-12-01T18:41:19.802Z,5.23
2018-12-01T18:43:48.355Z,4.33
2018-12-01T18:46:17.517Z,2.47
2018-12-01T18:48:46.627Z,3.23
2018-12-01T18:51:15.911Z,7.20
2018-12-01T18:53:44.485Z,3.53
2018-12-01T18:56:13.029Z,3.13
2018-12-01T18:58:42.225Z,6.73
2018-12-01T19:01:12.055Z,3.83
2018-12-01T19:03:40.676Z,6.23
2018-12-01T19:06:09.944Z,5.13
2018-12-01T19:08:39.193Z,5.13
2018-12-01T19:11:08.366Z,5.60
2018-12-01T19:13:36.909Z,6.67
2018-12-01T19:16:05.924Z,4.27
2018-12-01T19:18:34.718Z,7.97
2018-12-01T19:21:03.700Z,7.40
2018-12-01T19:23:32.359Z,4.97
2018-12-01T19:26:00.944Z,6.83
2018-12-01T19:28:30.369Z,6.27
2018-12-01T19:30:58.893Z,4.50
2018-12-01T19:33:27.540Z,10.20
2018-12-01T19:35:56.830Z,5.43
2018-12-01T19:38:29.422Z,7.40
2018-12-01T19:40:59.637Z,7.20
2018-12-01T19:43:28.179Z,3.67
2018-12-01T19:45:56.829Z,4.33
2018-12-01T19:48:25.550Z,5.13
2018-12-01T19:50:54.491Z,4.43
2018-12-01T19:53:23.074Z,7.67
2018-12-01T19:55:53.915Z,8.20
2018-12-01T19:58:23.975Z,6.03
2018-12-01T20:00:54.905Z,2.97
2018-12-01T20:03:24.554Z,3.17
2018-12-01T20:05:53.079Z,5.13
2018-12-01T20:08:22.865Z,4.17
2018-12-01T20:11:00.603Z,2.37
2018-12-01T20:13:36.400Z,4.93
2018-12-01T20:16:37.975Z,7.80
2018-12-01T20:19:07.569Z,5.60
2018-12-01T20:21:36.298Z,5.93
2018-12-01T20:24:06.202Z,4.93
2018-12-01T20:26:34.734Z,1.90
2018-12-01T20:29:03.252Z,5.53
2018-12-01T20:31:32.287Z,6.07
2018-12-01T20:34:01.994Z,3.80
2018-12-01T20:36:42.140Z,6.23
2018-12-01T20:39:13.421Z,5.53
2018-12-01T20:41:41.947Z,5.03
2018-12-01T20:44:10.539Z,6.27
2018-12-01T20:46:39.195Z,6.00
2018-12-01T20:49:08.188Z,6.37
2018-12-01T20:51:36.813Z,4.37
2018-12-01T20:54:08.002Z,3.37
2018-12-01T20:56:37.683Z,4.33
2018-12-01T20:59:06.261Z,5.80
2018-12-01T21:01:35.330Z,5.50
2018-12-01T21:04:03.911Z,2.77
2018-12-01T21:06:32.438Z,4.40
2018-12-01T21:09:01.230Z,6.10
2018-12-01T21:11:29.777Z,3.97
2018-12-01T21:13:58.351Z,4.63
2018-12-01T21:16:26.872Z,3.33
2018-12-01T21:18:56.605Z,3.47
2018-12-01T21:21:25.162Z,4.77
2018-12-01T21:23:53.703Z,5.00
2018-12-01T21:26:22.244Z,4.13
2018-12-01T21:28:52.156Z,5.17
2018-12-01T21:31:22.027Z,4.47
2018-12-01T21:33:55.507Z,5.80
2018-12-01T21:36:24.032Z,4.03
2018-12-01T21:38:52.576Z,4.23
2018-12-01T21:41:21.502Z,5.07
2018-12-01T21:43:50.121Z,5.57
2018-12-01T21:46:18.651Z,6.47
2018-12-01T21:48:47.192Z,3.80
2018-12-01T21:51:16.483Z,7.40
2018-12-01T21:53:47.920Z,4.03
2018-12-01T21:56:22.032Z,4.27
2018-12-01T21:58:51.020Z,3.43
2018-12-01T22:01:19.744Z,3.63
2018-12-01T22:03:48.295Z,22.25
2018-12-01T22:06:19.527Z,5.93
2018-12-01T22:08:48.818Z,5.53
2018-12-01T22:11:17.726Z,8.80
2018-12-01T22:13:46.291Z,4.83
2018-12-01T22:16:15.251Z,5.07
2018-12-01T22:18:44.036Z,8.57
2018-12-01T22:21:12.601Z,2.40
2018-12-01T22:23:41.099Z,6.97
2018-12-01T22:26:09.594Z,3.00
2018-12-01T22:28:38.649Z,5.47
2018-12-01T22:31:07.553Z,6.13
2018-12-01T22:33:36.099Z,5.00
2018-12-01T22:36:04.652Z,12.30
2018-12-01T22:38:33.996Z,4.80
2018-12-01T22:41:02.478Z,4.37
2018-12-01T22:43:31.002Z,2.23
2018-12-01T22:45:59.587Z,3.27
2018-12-01T22:48:28.091Z,4.87
2018-12-01T22:50:56.600Z,3.47
2018-12-01T22:53:26.243Z,4.17
2018-12-01T22:55:54.744Z,4.87
2018-12-01T22:58:23.274Z,5.33
2018-12-01T23:00:57.847Z,4.77
2018-12-01T23:03:27.556Z,4.73
2018-12-01T23:05:56.090Z,2.90
2018-12-01T23:08:25.771Z,4.27
2018-12-01T23:10:54.699Z,4.83
2018-12-01T23:13:23.348Z,4.67
2018-12-01T23:15:52.536Z,3.47
2018-12-01T23:18:23.280Z,4.13
2018-12-01T23:20:51.760Z,3.57
2018-12-01T23:23:20.529Z,3.00
2018-12-01T23:25:49.027Z,4.90
2018-12-01T23:28:17.518Z,2.20
2018-12-01T23:30:49.502Z,4.37
2018-12-01T23:33:22.220Z,3.70
2018-12-01T23:35:50.885Z,4.57
2018-12-01T23:38:19.506Z,3.80
2018-12-01T23:40:49.034Z,16.43
2018-12-01T23:43:17.560Z,12.40
2018-12-01T23:45:46.303Z,3.10
2018-12-01T23:48:14.790Z,2.97
2018-12-01T23:50:46.126Z,3.77
2018-12-01T23:53:15.822Z,3.67
2018-12-01T23:55:44.378Z,5.00
2018-12-01T23:58:12.931Z,3.13
